Time;durP1;ratioP1;P1;durP2;ratioP2;P2;SDS_P1;SDS_P2;PMS_P1;PMS_P2;Temp;Humidity;BMP_temperature;BMP_pressure;BME280_temperature;BME280_humidity;BME280_pressure;Samples;Min_cycle;Max_cycle;Signal;HPM_P1;HPM_P2
2022/11/27 05:02:43;;;;;;;13.37;8.83;;;1.50;99.90;;;;;;4953544;29;20473;-73
2022/11/27 05:05:10;;;;;;;15.77;9.37;;;1.50;99.90;;;;;;4955178;29;20941;-73
2022/11/27 05:07:37;;;;;;;12.87;8.83;;;1.50;99.90;;;;;;4955079;29;20500;-73
2022/11/27 05:10:04;;;;;;;10.93;9.20;;;1.50;99.90;;;;;;4954978;29;20461;-73
2022/11/27 05:12:31;;;;;;;14.10;9.30;;;1.50;99.90;;;;;;4954674;29;20482;-73
2022/11/27 05:14:58;;;;;;;12.73;9.23;;;1.50;99.90;;;;;;5021008;23;20515;-73
2022/11/27 05:17:25;;;;;;;15.27;9.80;;;1.50;99.90;;;;;;4993708;28;20456;-73
2022/11/27 05:19:53;;;;;;;13.60;9.00;;;1.50;99.90;;;;;;4993809;28;20455;-73
2022/11/27 05:22:19;;;;;;;14.00;8.53;;;1.50;99.90;;;;;;4993482;28;20452;-73
2022/11/27 05:24:46;;;;;;;15.27;9.90;;;1.50;99.90;;;;;;4993120;28;20479;-73
2022/11/27 05:27:13;;;;;;;16.87;8.67;;;1.60;99.90;;;;;;4993411;28;20456;-73
2022/11/27 05:29:42;;;;;;;14.67;9.77;;;1.60;99.90;;;;;;4993008;28;20463;-73
2022/11/27 05:32:09;;;;;;;13.00;9.60;;;1.60;99.90;;;;;;4987700;28;20655;-73
2022/11/27 05:34:35;;;;;;;14.43;9.53;;;1.50;99.90;;;;;;4987001;28;20843;-73
2022/11/27 05:37:03;;;;;;;13.30;9.23;;;1.50;99.90;;;;;;4986571;28;20840;-73
2022/11/27 05:39:30;;;;;;;13.67;9.60;;;1.50;99.90;;;;;;4986738;28;20467;-73
2022/11/27 05:41:57;;;;;;;16.33;9.97;;;1.50;99.90;;;;;;4986319;28;20458;-73
2022/11/27 05:44:24;;;;;;;15.03;9.67;;;1.50;99.90;;;;;;4986859;28;20495;-73
2022/11/27 05:46:50;;;;;;;14.33;10.07;;;1.50;99.90;;;;;;4986724;28;20459;-66
2022/11/27 05:49:18;;;;;;;17.80;11.47;;;1.40;99.90;;;;;;4985897;28;20487;-66
2022/11/27 05:51:45;;;;;;;15.73;9.83;;;1.50;99.90;;;;;;4986228;28;20463;-65
2022/11/27 05:54:13;;;;;;;14.40;9.10;;;1.60;99.90;;;;;;4986190;28;20995;-66
2022/11/27 05:56:40;;;;;;;17.90;10.83;;;1.50;99.90;;;;;;4986644;28;20459;-66
2022/11/27 05:59:08;;;;;;;16.40;9.90;;;1.50;99.90;;;;;;4986773;28;20456;-66
2022/11/27 06:01:35;;;;;;;19.37;9.83;;;1.50;99.90;;;;;;4986304;28;20460;-68
2022/11/27 06:04:02;;;;;;;13.60;9.53;;;1.40;99.90;;;;;;4986291;28;20483;-76
2022/11/27 06:06:29;;;;;;;12.33;8.57;;;1.40;99.90;;;;;;4986529;28;20459;-76
2022/11/27 06:08:55;;;;;;;14.90;8.90;;;1.40;99.90;;;;;;4986736;28;20499;-76
2022/11/27 06:11:24;;;;;;;14.23;9.37;;;1.40;99.90;;;;;;4986451;28;20979;-76
2022/11/27 06:13:51;;;;;;;16.20;9.60;;;1.40;99.90;;;;;;4985593;28;20499;-75
2022/11/27 06:16:20;;;;;;;13.13;8.60;;;1.40;99.90;;;;;;4986226;28;20464;-75
2022/11/27 06:18:49;;;;;;;19.57;11.43;;;1.40;99.90;;;;;;4984140;28;20928;-75
2022/11/27 06:21:16;;;;;;;16.20;10.00;;;1.40;99.90;;;;;;4973780;28;20456;-75
2022/11/27 06:23:43;;;;;;;21.30;11.80;;;1.40;99.90;;;;;;4985704;28;20490;-75
2022/11/27 06:26:15;;;;;;;18.30;11.13;;;1.40;99.90;;;;;;4986081;28;20546;-75
2022/11/27 06:28:44;;;;;;;18.83;11.13;;;1.40;99.90;;;;;;4985968;28;20496;-75
2022/11/27 06:31:13;;;;;;;18.83;10.77;;;1.30;99.90;;;;;;4986120;28;20468;-75
2022/11/27 06:33:40;;;;;;;17.50;10.70;;;1.30;99.90;;;;;;4985582;28;20488;-75
2022/11/27 06:36:08;;;;;;;17.67;11.70;;;1.30;99.90;;;;;;4986031;28;20470;-74
2022/11/27 06:38:36;;;;;;;19.43;11.83;;;1.30;99.90;;;;;;4985776;28;20455;-75
2022/11/27 06:41:05;;;;;;;19.77;12.23;;;1.30;99.90;;;;;;4985999;28;20459;-75
2022/11/27 06:43:32;;;;;;;17.63;11.43;;;1.30;99.90;;;;;;4985232;28;20464;-74
2022/11/27 06:46:02;;;;;;;20.73;12.43;;;1.30;99.90;;;;;;4985791;28;20469;-75
2022/11/27 06:48:29;;;;;;;20.20;12.43;;;1.20;99.90;;;;;;4986056;28;20499;-75
2022/11/27 06:50:59;;;;;;;21.43;12.23;;;1.20;99.90;;;;;;4985986;28;20463;-75
2022/11/27 06:53:26;;;;;;;18.70;11.30;;;1.20;99.90;;;;;;4985155;28;20459;-75
2022/11/27 06:55:53;;;;;;;19.60;12.53;;;1.20;99.90;;;;;;4985219;28;20463;-75
2022/11/27 06:58:19;;;;;;;16.90;11.40;;;1.20;99.90;;;;;;4985562;28;20470;-75
2022/11/27 07:00:46;;;;;;;19.80;12.10;;;1.20;99.90;;;;;;4986086;28;20456;-75
2022/11/27 07:03:14;;;;;;;18.63;12.97;;;1.20;99.90;;;;;;4985007;28;20470;-75
2022/11/27 07:05:41;;;;;;;17.23;11.33;;;1.30;99.90;;;;;;4989608;28;20459;-75
2022/11/27 07:08:08;;;;;;;21.07;11.50;;;1.20;99.90;;;;;;4989581;28;20491;-75
2022/11/27 07:10:35;;;;;;;22.53;12.43;;;1.20;99.90;;;;;;4989454;28;20466;-75
2022/11/27 07:13:02;;;;;;;49.70;27.13;;;1.20;99.90;;;;;;4988244;28;20466;-75
2022/11/27 07:15:29;;;;;;;52.23;30.47;;;1.20;99.90;;;;;;4989128;28;21003;-75
2022/11/27 07:17:56;;;;;;;39.27;24.43;;;1.20;99.90;;;;;;4989730;28;20451;-75
2022/11/27 07:20:24;;;;;;;28.47;16.37;;;1.20;99.90;;;;;;4989202;28;20451;-75
2022/11/27 07:22:51;;;;;;;27.13;15.70;;;1.20;99.90;;;;;;4988391;28;20466;-75
2022/11/27 07:25:17;;;;;;;21.10;13.60;;;1.20;99.90;;;;;;4989252;28;21011;-75
2022/11/27 07:27:44;;;;;;;21.70;13.57;;;1.20;99.90;;;;;;4989156;28;20463;-75
2022/11/27 07:30:12;;;;;;;25.93;14.90;;;1.30;99.90;;;;;;4987580;28;20447;-75
2022/11/27 07:32:38;;;;;;;24.27;14.17;;;1.20;99.90;;;;;;4988204;28;20460;-75
2022/11/27 07:35:06;;;;;;;24.80;15.33;;;1.20;99.90;;;;;;4988906;28;20983;-75
2022/11/27 07:37:34;;;;;;;21.87;14.73;;;1.30;99.90;;;;;;4987571;28;20468;-75
2022/11/27 07:40:01;;;;;;;21.90;13.70;;;1.30;99.90;;;;;;4988803;28;20492;-75
2022/11/27 07:42:28;;;;;;;20.30;12.20;;;1.30;99.90;;;;;;4988330;28;20463;-75
2022/11/27 07:44:55;;;;;;;17.40;12.30;;;1.30;99.90;;;;;;4989249;28;20475;-75
2022/11/27 07:47:22;;;;;;;22.07;12.90;;;1.30;99.90;;;;;;4989387;28;20465;-75
2022/11/27 07:49:48;;;;;;;27.00;15.50;;;1.30;99.90;;;;;;4989996;28;20501;-77
2022/11/27 07:52:15;;;;;;;29.43;16.37;;;1.30;99.90;;;;;;4990422;28;20463;-78
2022/11/27 07:54:43;;;;;;;28.67;15.20;;;1.30;99.90;;;;;;4990900;28;20563;-78
2022/11/27 07:57:10;;;;;;;26.13;15.83;;;1.30;99.90;;;;;;4990613;28;20467;-77
2022/11/27 07:59:37;;;;;;;27.27;16.90;;;1.30;99.90;;;;;;4990303;28;20452;-78
2022/11/27 08:02:04;;;;;;;27.70;15.57;;;1.40;99.90;;;;;;4989770;28;20466;-78
2022/11/27 08:04:30;;;;;;;25.27;16.10;;;1.40;99.90;;;;;;4990827;28;20490;-78
2022/11/27 08:06:57;;;;;;;23.57;15.17;;;1.40;99.90;;;;;;4990168;28;20967;-77
2022/11/27 08:09:24;;;;;;;28.80;16.93;;;1.40;99.90;;;;;;4989917;28;21022;-77
2022/11/27 08:11:52;;;;;;;32.57;18.03;;;1.50;99.90;;;;;;4989472;28;20460;-78
2022/11/27 08:14:19;;;;;;;25.00;16.70;;;1.50;99.90;;;;;;4990354;28;20522;-78
2022/11/27 08:16:46;;;;;;;30.23;20.47;;;1.50;99.90;;;;;;4990678;28;20502;-77
2022/11/27 08:19:13;;;;;;;27.27;17.93;;;1.60;99.90;;;;;;4990014;28;20455;-78
2022/11/27 08:21:40;;;;;;;29.70;16.73;;;1.70;99.90;;;;;;4989156;28;21281;-77
2022/11/27 08:24:07;;;;;;;28.60;15.20;;;1.70;99.90;;;;;;4990090;28;20480;-78
2022/11/27 08:26:35;;;;;;;30.90;19.10;;;1.80;99.90;;;;;;4990046;28;20467;-78
2022/11/27 08:29:05;;;;;;;43.97;22.07;;;1.80;99.90;;;;;;4989791;28;20502;-78
2022/11/27 08:31:33;;;;;;;41.40;21.80;;;1.80;99.90;;;;;;4989915;28;20491;-78
2022/11/27 08:33:59;;;;;;;29.03;18.00;;;1.90;99.90;;;;;;4988931;28;20922;-77
2022/11/27 08:36:26;;;;;;;32.27;17.10;;;1.90;99.90;;;;;;4989116;28;20470;-77
2022/11/27 08:38:54;;;;;;;29.77;15.97;;;1.90;99.90;;;;;;4989326;28;20456;-77
2022/11/27 08:41:21;;;;;;;26.13;14.70;;;1.90;99.90;;;;;;4989360;28;20983;-78
2022/11/27 08:43:48;;;;;;;28.60;14.00;;;2.00;99.90;;;;;;4987914;28;20487;-77
2022/11/27 08:46:16;;;;;;;28.13;13.87;;;2.10;99.90;;;;;;4988794;28;20460;-78
2022/11/27 08:48:43;;;;;;;21.33;12.77;;;2.10;99.90;;;;;;4988664;28;20495;-77
2022/11/27 08:51:12;;;;;;;21.70;13.57;;;2.20;99.90;;;;;;4988944;28;20554;-78
2022/11/27 08:53:39;;;;;;;31.50;14.63;;;2.30;99.90;;;;;;4988511;28;20487;-77
2022/11/27 08:56:08;;;;;;;20.93;13.10;;;2.40;99.90;;;;;;4988767;28;20493;-77
2022/11/27 08:58:35;;;;;;;26.33;16.50;;;2.50;99.90;;;;;;4988430;28;21037;-77
2022/11/27 09:01:08;;;;;;;21.83;16.50;;;2.60;99.90;;;;;;4987563;28;20459;-77
2022/11/27 09:03:36;;;;;;;30.40;18.30;;;2.70;99.90;;;;;;4987594;28;20479;-77
2022/11/27 09:06:06;;;;;;;33.17;17.73;;;2.80;99.90;;;;;;4988453;28;20456;-77
2022/11/27 09:08:33;;;;;;;31.47;17.77;;;3.00;99.90;;;;;;4988403;28;20487;-77
2022/11/27 09:11:00;;;;;;;27.63;19.00;;;3.20;99.90;;;;;;4988812;28;20865;-77
2022/11/27 09:13:27;;;;;;;29.73;18.73;;;3.30;99.90;;;;;;4986772;28;20859;-77
2022/11/27 09:15:56;;;;;;;25.60;17.00;;;3.50;99.90;;;;;;4988112;28;20466;-77
2022/11/27 09:18:23;;;;;;;30.43;18.60;;;3.60;99.90;;;;;;4988333;28;20455;-77
2022/11/27 09:20:57;;;;;;;31.23;17.30;;;3.70;99.90;;;;;;4985378;28;20955;-77
2022/11/27 09:23:24;;;;;;;17.80;11.60;;;3.70;99.90;;;;;;4985620;28;20459;-77
2022/11/27 09:25:50;;;;;;;18.40;11.70;;;3.80;99.90;;;;;;4987763;28;20491;-77
2022/11/27 09:28:17;;;;;;;18.77;10.67;;;3.90;99.90;;;;;;4987801;28;20460;-77
2022/11/27 09:30:44;;;;;;;19.43;11.23;;;4.00;99.90;;;;;;4987946;28;20985;-77
2022/11/27 09:33:11;;;;;;;18.23;10.50;;;4.20;99.90;;;;;;4986550;28;20466;-77
2022/11/27 09:35:39;;;;;;;17.40;11.00;;;4.30;99.90;;;;;;4988213;28;20483;-77
2022/11/27 09:38:07;;;;;;;14.80;9.27;;;4.40;99.90;;;;;;4987604;28;20471;-77
2022/11/27 09:40:34;;;;;;;22.63;13.87;;;4.50;99.90;;;;;;4988726;28;20471;-77
2022/11/27 09:43:08;;;;;;;21.17;13.97;;;4.70;99.90;;;;;;4986968;28;20457;-77
2022/11/27 09:45:41;;;;;;;22.83;13.93;;;4.90;99.90;;;;;;4987899;28;20479;-77
2022/11/27 09:48:13;;;;;;;21.80;15.20;;;5.40;99.90;;;;;;4987983;28;20454;-78
2022/11/27 09:50:48;;;;;;;25.83;16.97;;;5.80;99.90;;;;;;4988191;28;20444;-77
2022/11/27 09:53:24;;;;;;;24.20;15.53;;;6.10;99.90;;;;;;4986745;28;20439;-78
2022/11/27 09:55:54;;;;;;;19.70;13.10;;;6.20;99.90;;;;;;4987983;28;20959;-82
2022/11/27 09:58:40;;;;;;;22.10;12.73;;;6.10;99.90;;;;;;4987246;28;20956;-77
2022/11/27 10:01:16;;;;;;;17.77;12.00;;;6.00;99.90;;;;;;4987905;28;20458;-78
2022/11/27 10:03:45;;;;;;;21.70;14.03;;;6.00;99.90;;;;;;4986859;28;20479;-78
2022/11/27 10:06:28;;;;;;;19.90;14.43;;;6.60;99.90;;;;;;4987741;28;20463;-78
2022/11/27 10:09:16;;;;;;;20.63;13.70;;;7.00;99.90;;;;;;4988459;28;20885;-78
2022/11/27 10:11:51;;;;;;;13.23;10.00;;;7.00;99.90;;;;;;4987178;28;20447;-78
2022/11/27 10:14:31;;;;;;;12.00;8.50;;;6.90;99.90;;;;;;4987312;28;21191;-77
2022/11/27 10:17:04;;;;;;;18.30;9.30;;;7.00;99.90;;;;;;4987066;28;21027;-78
2022/11/27 10:19:39;;;;;;;15.00;9.17;;;7.10;99.90;;;;;;4987384;28;20458;-79
2022/11/27 10:22:15;;;;;;;9.50;7.97;;;7.40;99.90;;;;;;4986869;28;20462;-79
2022/11/27 10:24:50;;;;;;;10.00;7.60;;;7.90;99.90;;;;;;4986996;28;20486;-78
2022/11/27 10:27:22;;;;;;;9.73;5.90;;;8.20;99.90;;;;;;4987999;28;20466;-77
2022/11/27 10:29:53;;;;;;;10.23;7.07;;;8.30;99.90;;;;;;4987592;28;20482;-78
2022/11/27 10:32:23;;;;;;;14.00;9.40;;;8.70;99.90;;;;;;4986097;28;20459;-77
2022/11/27 10:34:53;;;;;;;11.97;8.23;;;8.90;99.90;;;;;;4988050;28;20483;-78
2022/11/27 10:37:26;;;;;;;9.20;5.40;;;9.00;99.90;;;;;;4986520;28;20460;-78
2022/11/27 10:40:00;;;;;;;6.20;4.43;;;9.30;99.90;;;;;;4990256;28;20455;-76
2022/11/27 10:42:36;;;;;;;5.13;4.27;;;9.70;99.90;;;;;;4988472;28;20467;-76
2022/11/27 10:45:05;;;;;;;6.50;5.03;;;10.10;99.90;;;;;;4990209;28;20975;-76
2022/11/27 10:47:33;;;;;;;7.83;3.70;;;10.30;99.90;;;;;;4990095;28;20465;-76
2022/11/27 10:49:59;;;;;;;3.70;3.30;;;10.10;99.90;;;;;;4989871;28;20495;-76
2022/11/27 10:52:26;;;;;;;5.43;3.50;;;10.20;99.90;;;;;;4989286;28;20455;-76
2022/11/27 10:54:59;;;;;;;5.50;3.93;;;10.20;99.90;;;;;;4990406;28;20471;-78
2022/11/27 10:57:40;;;;;;;6.03;4.23;;;10.50;99.90;;;;;;4993002;28;20448;-76
2022/11/27 11:00:13;;;;;;;6.40;4.13;;;10.70;99.90;;;;;;4989787;28;20455;-76
2022/11/27 11:02:41;;;;;;;5.93;3.50;;;10.60;99.90;;;;;;4989635;28;20522;-76
2022/11/27 11:05:12;;;;;;;4.77;3.47;;;10.60;99.90;;;;;;4990119;28;20482;-77
2022/11/27 11:07:39;;;;;;;3.57;2.90;;;10.90;99.90;;;;;;4989873;28;20567;-77
2022/11/27 11:10:25;;;;;;;5.03;3.23;;;11.10;99.90;;;;;;4989811;28;20492;-77
2022/11/27 11:13:13;;;;;;;2.93;2.53;;;11.30;99.90;;;;;;4988982;28;20462;-76
2022/11/27 11:15:55;;;;;;;3.53;2.20;;;11.50;99.90;;;;;;4990314;28;20558;-79
2022/11/27 11:18:24;;;;;;;2.80;2.10;;;12.00;99.90;;;;;;4990017;28;20787;-77
2022/11/27 11:20:54;;;;;;;2.50;1.90;;;12.10;99.90;;;;;;4989413;28;20832;-76
2022/11/27 11:23:27;;;;;;;2.67;1.93;;;12.40;99.90;;;;;;4988857;28;20467;-77
2022/11/27 11:25:59;;;;;;;2.20;1.90;;;12.60;99.90;;;;;;4990250;28;20865;-77
2022/11/27 11:28:27;;;;;;;3.93;2.33;;;12.60;99.90;;;;;;4990299;28;20460;-76
2022/11/27 11:30:58;;;;;;;3.83;2.60;;;12.80;99.90;;;;;;4990111;28;20502;-77
2022/11/27 11:33:27;;;;;;;3.60;2.20;;;12.90;99.90;;;;;;4989208;28;20448;-77
2022/11/27 11:35:57;;;;;;;1.90;1.70;;;12.90;99.90;;;;;;4989891;28;21271;-76
2022/11/27 11:38:30;;;;;;;2.50;1.83;;;12.90;99.90;;;;;;4990527;28;20466;-76
2022/11/27 11:41:01;;;;;;;4.20;1.90;;;13.30;99.90;;;;;;4988532;28;21023;-77
2022/11/27 11:43:30;;;;;;;2.30;1.87;;;13.60;99.90;;;;;;4988313;28;20854;-78
2022/11/27 11:46:15;;;;;;;3.47;2.30;;;13.70;99.90;;;;;;4988412;28;20491;-78
2022/11/27 11:48:53;;;;;;;3.33;2.03;;;13.70;99.90;;;;;;4988720;28;20459;-69
2022/11/27 11:51:30;;;;;;;3.20;2.57;;;13.80;99.90;;;;;;4988682;28;20431;-69
2022/11/27 11:54:07;;;;;;;4.90;2.23;;;13.80;99.90;;;;;;4988028;28;20979;-68
2022/11/27 11:56:39;;;;;;;3.50;2.00;;;13.90;99.90;;;;;;4988174;28;20440;-68
2022/11/27 11:59:15;;;;;;;5.03;2.00;;;14.10;99.90;;;;;;4988249;28;20467;-69
2022/11/27 12:01:55;;;;;;;3.83;2.10;;;14.10;99.90;;;;;;4988085;28;20454;-69
2022/11/27 12:04:41;;;;;;;3.87;2.13;;;14.10;99.90;;;;;;4988569;28;21178;-68
2022/11/27 12:07:15;;;;;;;3.40;2.20;;;14.30;99.90;;;;;;4992271;28;20440;-79
2022/11/27 12:09:52;;;;;;;2.23;1.63;;;14.60;99.90;;;;;;4992726;28;20863;-78
2022/11/27 12:12:43;;;;;;;2.30;1.90;;;14.80;99.90;;;;;;4990650;28;20455;-78
2022/11/27 12:15:19;;;;;;;3.00;2.17;;;14.60;99.90;;;;;;4991205;28;20499;-76
2022/11/27 12:17:55;;;;;;;2.97;2.00;;;14.60;99.90;;;;;;4991661;28;20447;-79
2022/11/27 12:20:27;;;;;;;4.90;2.33;;;14.70;99.90;;;;;;4990303;28;20491;-79
2022/11/27 12:23:19;;;;;;;2.13;1.70;;;14.70;99.90;;;;;;4989705;28;21244;-79
2022/11/27 12:25:53;;;;;;;3.00;1.93;;;14.70;99.90;;;;;;4990954;28;20464;-78
2022/11/27 12:28:41;;;;;;;3.53;2.23;;;14.80;99.90;;;;;;4991212;28;20442;-79
2022/11/27 12:31:18;;;;;;;2.40;2.00;;;14.80;99.90;;;;;;4990917;28;20501;-78
2022/11/27 12:33:58;;;;;;;2.13;1.93;;;14.90;99.90;;;;;;4988895;28;20479;-79
2022/11/27 12:36:42;;;;;;;3.20;2.10;;;14.90;99.90;;;;;;4990429;28;20973;-78
2022/11/27 12:39:20;;;;;;;2.60;1.70;;;14.90;99.90;;;;;;4992805;28;20458;-79
2022/11/27 12:42:00;;;;;;;3.10;2.00;;;14.80;99.90;;;;;;4989269;28;20460;-79
2022/11/27 12:44:37;;;;;;;1.90;1.60;;;14.70;99.90;;;;;;4989124;28;20475;-79
2022/11/27 12:47:09;;;;;;;2.43;1.90;;;14.80;99.90;;;;;;4997781;28;20454;-78
2022/11/27 12:49:42;;;;;;;2.60;1.80;;;14.70;99.90;;;;;;4999936;28;20482;-78
2022/11/27 12:52:14;;;;;;;2.37;1.70;;;14.70;99.90;;;;;;4997386;28;20447;-79
2022/11/27 12:54:46;;;;;;;1.53;1.40;;;14.50;99.90;;;;;;4999049;28;20483;-77
2022/11/27 12:57:18;;;;;;;1.90;1.50;;;14.50;99.90;;;;;;4997339;28;20463;-77
2022/11/27 12:59:52;;;;;;;1.97;1.50;;;14.60;99.90;;;;;;4997895;28;20452;-78
2022/11/27 13:02:28;;;;;;;4.40;1.93;;;14.70;99.90;;;;;;4992402;28;20531;-78
2022/11/27 13:05:00;;;;;;;2.50;1.80;;;14.70;99.90;;;;;;4991849;28;20481;-78
2022/11/27 13:07:37;;;;;;;3.53;2.30;;;14.60;99.90;;;;;;4992289;28;20452;-77
2022/11/27 13:10:12;;;;;;;2.33;2.00;;;14.60;99.90;;;;;;4994393;28;20985;-78
2022/11/27 13:12:43;;;;;;;2.60;1.90;;;14.40;99.90;;;;;;4994425;28;20454;-77
2022/11/27 13:15:23;;;;;;;1.70;1.47;;;14.10;99.90;;;;;;4995926;28;20491;-76
2022/11/27 13:17:56;;;;;;;3.87;2.30;;;13.90;99.90;;;;;;4995749;28;20465;-77
2022/11/27 13:20:29;;;;;;;3.83;1.93;;;13.70;99.90;;;;;;4995663;28;20499;-76
2022/11/27 13:22:56;;;;;;;2.70;1.77;;;13.60;99.90;;;;;;4993242;28;20459;-78
2022/11/27 13:25:23;;;;;;;3.63;2.33;;;13.40;99.90;;;;;;4994762;28;20481;-80
2022/11/27 13:27:52;;;;;;;3.70;2.40;;;13.40;99.90;;;;;;4988872;28;20455;-77
2022/11/27 13:30:23;;;;;;;4.00;2.00;;;13.30;99.90;;;;;;4987038;28;20521;-76
2022/11/27 13:32:54;;;;;;;2.80;1.53;;;13.20;99.90;;;;;;4989642;28;21003;-77
2022/11/27 13:35:26;;;;;;;2.10;1.70;;;13.20;99.90;;;;;;4989992;28;20484;-80
2022/11/27 13:37:59;;;;;;;2.00;1.60;;;13.20;99.90;;;;;;4989873;28;20447;-77
2022/11/27 13:40:30;;;;;;;2.37;1.80;;;13.10;99.90;;;;;;4988495;28;20443;-77
2022/11/27 13:43:04;;;;;;;2.90;2.03;;;13.10;99.90;;;;;;4987031;28;20499;-78
2022/11/27 13:45:36;;;;;;;2.27;1.67;;;13.00;99.90;;;;;;4989817;28;20476;-79
2022/11/27 13:48:18;;;;;;;2.57;1.60;;;12.90;99.90;;;;;;4988895;28;20444;-76
2022/11/27 13:50:46;;;;;;;2.40;1.70;;;12.90;99.90;;;;;;4988467;28;20501;-78
2022/11/27 13:53:14;;;;;;;1.80;1.57;;;12.80;99.90;;;;;;4988293;28;20582;-77
2022/11/27 13:55:53;;;;;;;2.10;1.90;;;12.80;99.90;;;;;;4989345;28;20460;-77
2022/11/27 13:58:32;;;;;;;3.47;1.60;;;12.70;99.90;;;;;;4988377;28;20463;-77
2022/11/27 14:01:16;;;;;;;1.73;1.63;;;12.60;99.90;;;;;;4987761;28;20460;-76
2022/11/27 14:03:44;;;;;;;2.30;1.90;;;12.60;99.90;;;;;;4987385;28;20490;-77
2022/11/27 14:06:21;;;;;;;3.13;2.10;;;12.50;99.90;;;;;;4988509;28;20464;-77
2022/11/27 14:08:55;;;;;;;2.70;1.83;;;12.50;99.90;;;;;;4987879;28;20464;-77
2022/11/27 14:11:31;;;;;;;3.00;2.07;;;12.40;99.90;;;;;;4988644;28;20483;-77
2022/11/27 14:13:59;;;;;;;4.13;2.23;;;12.40;99.90;;;;;;4986420;28;20487;-77
2022/11/27 14:16:30;;;;;;;4.50;3.20;;;12.30;99.90;;;;;;4988605;28;20444;-77
2022/11/27 14:18:58;;;;;;;4.40;3.30;;;12.20;99.90;;;;;;4987946;28;20456;-77
2022/11/27 14:21:37;;;;;;;6.87;5.80;;;12.10;99.90;;;;;;4988085;28;20539;-77
2022/11/27 14:24:24;;;;;;;8.63;6.53;;;12.10;99.90;;;;;;4987115;28;21082;-77
2022/11/27 14:26:51;;;;;;;3.37;2.87;;;12.00;99.90;;;;;;4988271;28;20443;-77
2022/11/27 14:29:20;;;;;;;3.30;2.50;;;11.80;99.90;;;;;;4987316;28;20956;-77
2022/11/27 14:31:58;;;;;;;2.30;1.77;;;11.70;99.90;;;;;;4986564;28;20499;-77
2022/11/27 14:34:29;;;;;;;2.77;2.47;;;11.60;99.90;;;;;;4987100;28;20479;-77
2022/11/27 14:36:56;;;;;;;3.40;2.00;;;11.50;99.90;;;;;;4987843;28;20455;-77
2022/11/27 14:39:25;;;;;;;2.80;2.20;;;11.50;99.90;;;;;;4987566;28;20514;-77
2022/11/27 14:42:00;;;;;;;2.10;1.90;;;11.50;99.90;;;;;;4985157;28;20463;-77
2022/11/27 14:44:27;;;;;;;2.10;1.90;;;11.40;99.90;;;;;;4985980;28;20562;-77
2022/11/27 14:46:57;;;;;;;3.20;2.40;;;11.30;99.90;;;;;;4985493;28;20467;-77
2022/11/27 14:49:26;;;;;;;7.60;3.17;;;11.30;99.90;;;;;;4986979;28;20448;-77
2022/11/27 14:51:54;;;;;;;5.27;3.60;;;11.30;99.90;;;;;;4986249;28;20495;-77
2022/11/27 14:54:25;;;;;;;3.77;2.97;;;11.20;99.90;;;;;;4986867;28;20479;-77
2022/11/27 14:56:52;;;;;;;5.00;3.27;;;11.10;99.90;;;;;;4987000;28;20467;-77
2022/11/27 14:59:21;;;;;;;4.87;2.60;;;11.00;99.90;;;;;;4987412;28;20983;-77
2022/11/27 15:02:01;;;;;;;3.00;2.63;;;10.90;99.90;;;;;;4985849;28;20456;-77
2022/11/27 15:04:33;;;;;;;2.90;2.23;;;10.80;99.90;;;;;;4987500;28;20475;-77
2022/11/27 15:07:00;;;;;;;2.87;2.27;;;10.70;99.90;;;;;;4988127;28;20454;-78
2022/11/27 15:09:29;;;;;;;2.23;2.00;;;10.70;99.90;;;;;;4985169;28;20514;-77
2022/11/27 15:12:00;;;;;;;2.03;1.83;;;10.60;99.90;;;;;;4986496;28;21007;-77
2022/11/27 15:14:28;;;;;;;3.67;3.17;;;10.50;99.90;;;;;;4987118;28;20484;-78
2022/11/27 15:16:57;;;;;;;10.80;7.10;;;10.50;99.90;;;;;;4985397;28;20463;-77
2022/11/27 15:19:28;;;;;;;12.80;6.30;;;10.30;99.90;;;;;;4987500;28;20452;-77
2022/11/27 15:21:56;;;;;;;7.57;5.20;;;10.30;99.90;;;;;;4986490;28;20958;-77
2022/11/27 15:24:30;;;;;;;8.10;6.37;;;10.20;99.90;;;;;;4987434;28;20488;-76
2022/11/27 15:27:07;;;;;;;6.70;5.80;;;10.10;99.90;;;;;;4990430;28;20882;-77
2022/11/27 15:29:36;;;;;;;6.40;4.73;;;10.00;99.90;;;;;;4990851;28;20469;-77
2022/11/27 15:32:03;;;;;;;6.00;4.10;;;10.00;99.90;;;;;;4989624;28;20495;-77
2022/11/27 15:34:33;;;;;;;3.00;2.70;;;9.90;99.90;;;;;;4990334;28;21419;-77
2022/11/27 15:37:05;;;;;;;7.30;3.00;;;9.80;99.90;;;;;;4990455;28;21402;-77
2022/11/27 15:39:37;;;;;;;3.17;2.40;;;9.80;99.90;;;;;;4990169;28;20523;-77
2022/11/27 15:42:08;;;;;;;3.43;2.60;;;9.70;99.90;;;;;;4989260;28;20455;-77
2022/11/27 15:44:35;;;;;;;3.87;2.37;;;9.60;99.90;;;;;;4990024;28;20483;-77
2022/11/27 15:47:04;;;;;;;2.87;2.57;;;9.60;99.90;;;;;;4990137;28;20838;-77
2022/11/27 15:49:32;;;;;;;3.77;2.40;;;9.50;99.90;;;;;;4990531;28;20459;-77
2022/11/27 15:51:59;;;;;;;3.00;2.30;;;9.50;99.90;;;;;;4989460;28;20501;-77
2022/11/27 15:54:26;;;;;;;3.03;2.47;;;9.50;99.90;;;;;;4990649;28;20551;-77
2022/11/27 15:56:53;;;;;;;3.80;2.17;;;9.50;99.90;;;;;;4990558;28;20464;-77
2022/11/27 15:59:19;;;;;;;2.90;2.27;;;9.50;99.90;;;;;;4989540;28;20456;-77
2022/11/27 16:01:46;;;;;;;3.00;2.30;;;9.50;99.90;;;;;;4988708;28;21023;-77
2022/11/27 16:04:13;;;;;;;3.20;2.80;;;9.50;99.90;;;;;;4989551;28;20483;-75
2022/11/27 16:06:41;;;;;;;3.60;2.80;;;9.50;99.90;;;;;;4988851;28;20460;-76
2022/11/27 16:09:08;;;;;;;5.03;3.03;;;9.60;99.90;;;;;;4989015;28;20460;-77
2022/11/27 16:11:35;;;;;;;4.60;3.30;;;9.60;99.90;;;;;;4988438;28;21338;-77
2022/11/27 16:14:01;;;;;;;14.07;8.23;;;9.60;99.90;;;;;;4988506;28;20483;-77
2022/11/27 16:16:28;;;;;;;13.60;8.60;;;9.60;99.90;;;;;;4988491;28;20558;-75
2022/11/27 16:18:59;;;;;;;3.43;3.07;;;9.60;99.90;;;;;;4988464;28;20539;-75
2022/11/27 16:21:27;;;;;;;3.70;2.73;;;9.60;99.90;;;;;;4988578;28;20507;-75
2022/11/27 16:23:58;;;;;;;3.33;2.90;;;9.50;99.90;;;;;;4988136;28;20475;-75
2022/11/27 16:26:25;;;;;;;3.93;2.90;;;9.50;99.90;;;;;;4988132;28;20443;-75
2022/11/27 16:28:52;;;;;;;3.43;3.00;;;9.50;99.90;;;;;;4988649;28;20465;-75
2022/11/27 16:31:19;;;;;;;8.80;6.10;;;9.50;99.90;;;;;;4988281;28;20497;-75
2022/11/27 16:33:46;;;;;;;12.23;7.00;;;9.40;99.90;;;;;;4987509;28;20480;-75
2022/11/27 16:36:15;;;;;;;11.20;6.20;;;9.40;99.90;;;;;;4987092;28;20462;-75
2022/11/27 16:38:43;;;;;;;7.83;5.33;;;9.40;99.90;;;;;;4988454;28;20460;-75
2022/11/27 16:41:15;;;;;;;5.60;3.50;;;9.30;99.90;;;;;;4988441;28;20451;-75
2022/11/27 16:43:45;;;;;;;5.83;4.07;;;9.30;99.90;;;;;;4985294;28;20511;-75
2022/11/27 16:46:13;;;;;;;10.33;6.40;;;9.20;99.90;;;;;;4988215;28;20557;-75
2022/11/27 16:48:42;;;;;;;10.03;8.83;;;9.10;99.90;;;;;;4988187;28;20825;-75
2022/11/27 16:51:11;;;;;;;8.77;6.97;;;9.10;99.90;;;;;;4988005;28;20487;-75
2022/11/27 16:53:39;;;;;;;10.97;5.50;;;9.10;99.90;;;;;;4987137;28;20519;-75
2022/11/27 16:56:07;;;;;;;3.73;2.93;;;9.10;99.90;;;;;;4988361;28;20967;-75
2022/11/27 16:58:37;;;;;;;3.17;2.87;;;9.00;99.90;;;;;;4987721;28;20471;-75
2022/11/27 17:01:05;;;;;;;3.53;3.23;;;9.00;99.90;;;;;;4988008;28;20463;-75
2022/11/27 17:03:32;;;;;;;5.20;3.40;;;8.90;99.90;;;;;;4986867;28;20463;-75
2022/11/27 17:05:59;;;;;;;5.27;3.93;;;8.90;99.90;;;;;;4987798;28;20459;-75
2022/11/27 17:08:26;;;;;;;5.27;3.83;;;8.90;99.90;;;;;;4987510;28;20831;-75
2022/11/27 17:10:53;;;;;;;6.43;4.67;;;8.80;99.90;;;;;;4987501;28;20519;-74
2022/11/27 17:13:23;;;;;;;9.87;6.27;;;8.80;99.90;;;;;;4986661;28;20819;-75
2022/11/27 17:15:51;;;;;;;5.97;5.00;;;8.80;99.90;;;;;;4987486;28;20478;-75
2022/11/27 17:18:17;;;;;;;5.63;4.70;;;8.70;99.90;;;;;;4987424;28;20460;-75
2022/11/27 17:20:44;;;;;;;5.17;4.50;;;8.70;99.90;;;;;;4987679;28;20465;-74
2022/11/27 17:23:11;;;;;;;4.87;4.43;;;8.60;99.90;;;;;;4986418;28;20493;-74
2022/11/27 17:25:38;;;;;;;5.30;4.40;;;8.40;99.90;;;;;;4986802;28;21029;-75
2022/11/27 17:28:05;;;;;;;5.83;4.80;;;8.40;99.90;;;;;;4987383;28;20547;-74
2022/11/27 17:30:32;;;;;;;7.00;5.40;;;8.30;99.90;;;;;;4987164;28;20468;-74
2022/11/27 17:33:00;;;;;;;8.73;4.50;;;8.30;99.90;;;;;;4986201;28;20459;-75
2022/11/27 17:35:27;;;;;;;12.60;6.73;;;8.30;99.90;;;;;;4986375;28;20490;-74
2022/11/27 17:37:54;;;;;;;14.40;8.00;;;8.20;99.90;;;;;;4987289;28;20479;-74
2022/11/27 17:40:21;;;;;;;9.63;7.30;;;8.30;99.90;;;;;;4987037;28;20468;-74
2022/11/27 17:42:48;;;;;;;9.90;6.50;;;8.20;99.90;;;;;;4984614;28;20459;-74
2022/11/27 17:45:15;;;;;;;6.93;5.63;;;8.20;99.90;;;;;;4985459;28;20475;-74
2022/11/27 17:47:41;;;;;;;9.17;6.70;;;8.20;99.90;;;;;;4986501;28;20467;-74
2022/11/27 17:50:10;;;;;;;6.40;4.93;;;8.10;99.90;;;;;;4986729;28;20953;-74
2022/11/27 17:52:37;;;;;;;8.57;6.20;;;8.00;99.90;;;;;;4985558;28;20491;-74
2022/11/27 17:55:05;;;;;;;14.87;10.13;;;8.00;99.90;;;;;;4986007;28;21030;-74
2022/11/27 17:57:31;;;;;;;11.07;7.27;;;8.00;99.90;;;;;;4986716;28;20455;-75
2022/11/27 17:59:58;;;;;;;12.03;8.20;;;8.00;99.90;;;;;;4986071;28;20480;-75
2022/11/27 18:02:25;;;;;;;11.43;7.43;;;7.90;99.90;;;;;;4986088;28;20455;-75